E16

San Martin Airport

San Martin, California, USA
METAR KE16 161955Z AUTO 00000KT 10SM CLR 29/12 A2998 RMK AO2
Observed Flight Rules
Jul-16 @ 19:55 UTC (17 minutes ago) Visual Flight Rules
Visibility Clouds
10 miles
  • Clear skies
Temperatures Readings
Current 29°C / 84°F
Dewpoint 12°C / 54°F
Humidity 35%
Altimeter 29.98" Hg
Pressure 1015 hPa
Elevation 86
METAR KE16 161955Z AUTO 00000KT 10SM CLR 29/12 A2998 RMK AO2
Observed Flight Rules
Jul-16 @ 19:55 UTC
(17 minutes ago)
VFR
Clouds
  • Clear skies
Temperature Dewpoint
29°C / 84°F 12°C / 54°F
Humidity Altimeter Pressure
35% 29.98" Hg 1015 hPa